sensor_id;sensor_type;location;lat;lon;timestamp;noise_LAeq;noise_LA_min;noise_LA_max;noise_LA01;noise_LA95
66888;Laerm;53798;51.680;5.976;2022-12-16T00:00:08;59.67;34.38;78.92;;
66888;Laerm;53798;51.680;5.976;2022-12-16T00:02:36;57.64;34.95;76.70;;
66888;Laerm;53798;51.680;5.976;2022-12-16T00:05:07;38.37;34.58;45.14;;
66888;Laerm;53798;51.680;5.976;2022-12-16T00:07:34;40.75;36.33;50.16;;
66888;Laerm;53798;51.680;5.976;2022-12-16T00:10:02;62.53;35.81;82.60;;
66888;Laerm;53798;51.680;5.976;2022-12-16T00:12:29;38.90;35.41;45.33;;
66888;Laerm;53798;51.680;5.976;2022-12-16T00:14:57;60.16;36.18;79.39;;
66888;Laerm;53798;51.680;5.976;2022-12-16T00:17:24;40.11;36.55;46.14;;
66888;Laerm;53798;51.680;5.976;2022-12-16T00:19:51;39.25;35.67;45.17;;
66888;Laerm;53798;51.680;5.976;2022-12-16T00:22:18;60.46;35.60;79.48;;
66888;Laerm;53798;51.680;5.976;2022-12-16T00:24:45;39.87;36.06;57.57;;
66888;Laerm;53798;51.680;5.976;2022-12-16T00:27:12;39.75;35.09;47.69;;
66888;Laerm;53798;51.680;5.976;2022-12-16T00:29:39;40.33;36.45;51.13;;
66888;Laerm;53798;51.680;5.976;2022-12-16T00:32:06;39.24;34.65;47.61;;
66888;Laerm;53798;51.680;5.976;2022-12-16T00:34:33;37.80;34.41;48.14;;
66888;Laerm;53798;51.680;5.976;2022-12-16T00:37:00;39.29;33.49;53.56;;
66888;Laerm;53798;51.680;5.976;2022-12-16T00:39:27;38.35;32.77;51.09;;
66888;Laerm;53798;51.680;5.976;2022-12-16T00:41:54;36.07;32.03;47.21;;
66888;Laerm;53798;51.680;5.976;2022-12-16T00:44:21;37.64;32.32;52.80;;
66888;Laerm;53798;51.680;5.976;2022-12-16T00:46:48;60.63;34.29;80.28;;
66888;Laerm;53798;51.680;5.976;2022-12-16T00:49:16;50.07;33.12;64.58;;
66888;Laerm;53798;51.680;5.976;2022-12-16T00:51:43;60.82;35.09;78.62;;
66888;Laerm;53798;51.680;5.976;2022-12-16T00:54:10;39.12;32.63;53.45;;
66888;Laerm;53798;51.680;5.976;2022-12-16T00:56:38;38.24;32.98;50.79;;
66888;Laerm;53798;51.680;5.976;2022-12-16T00:59:06;65.20;35.16;84.35;;
66888;Laerm;53798;51.680;5.976;2022-12-16T01:01:34;38.27;33.78;46.69;;
66888;Laerm;53798;51.680;5.976;2022-12-16T01:04:01;58.68;35.19;74.97;;
66888;Laerm;53798;51.680;5.976;2022-12-16T01:06:30;59.34;34.34;75.94;;
66888;Laerm;53798;51.680;5.976;2022-12-16T01:09:00;38.26;33.68;49.08;;
66888;Laerm;53798;51.680;5.976;2022-12-16T01:11:27;38.45;34.11;47.08;;
66888;Laerm;53798;51.680;5.976;2022-12-16T01:13:54;39.28;34.15;54.02;;
66888;Laerm;53798;51.680;5.976;2022-12-16T01:16:21;40.40;36.24;45.89;;
66888;Laerm;53798;51.680;5.976;2022-12-16T01:18:49;42.41;38.26;49.71;;
66888;Laerm;53798;51.680;5.976;2022-12-16T01:21:16;39.22;33.70;46.12;;
66888;Laerm;53798;51.680;5.976;2022-12-16T01:23:43;35.65;32.16;44.47;;
66888;Laerm;53798;51.680;5.976;2022-12-16T01:26:16;34.72;31.78;48.09;;
66888;Laerm;53798;51.680;5.976;2022-12-16T01:28:46;54.77;33.52;73.62;;
66888;Laerm;53798;51.680;5.976;2022-12-16T01:31:16;38.00;33.75;47.41;;
66888;Laerm;53798;51.680;5.976;2022-12-16T01:33:46;38.55;32.83;47.26;;
66888;Laerm;53798;51.680;5.976;2022-12-16T01:36:13;37.90;32.29;46.48;;
66888;Laerm;53798;51.680;5.976;2022-12-16T01:38:42;38.11;31.27;56.08;;
66888;Laerm;53798;51.680;5.976;2022-12-16T01:41:12;57.16;31.65;74.82;;
66888;Laerm;53798;51.680;5.976;2022-12-16T01:43:41;50.45;31.49;71.88;;
66888;Laerm;53798;51.680;5.976;2022-12-16T01:46:23;34.97;31.51;42.93;;
66888;Laerm;53798;51.680;5.976;2022-12-16T01:49:03;57.22;33.33;76.45;;
66888;Laerm;53798;51.680;5.976;2022-12-16T01:51:36;40.36;34.41;53.42;;
66888;Laerm;53798;51.680;5.976;2022-12-16T01:54:21;37.43;34.32;47.04;;
66888;Laerm;53798;51.680;5.976;2022-12-16T01:56:59;35.52;33.07;41.60;;
66888;Laerm;53798;51.680;5.976;2022-12-16T01:59:31;36.33;32.65;43.41;;
66888;Laerm;53798;51.680;5.976;2022-12-16T02:02:02;37.27;33.18;45.39;;
66888;Laerm;53798;51.680;5.976;2022-12-16T02:04:30;38.41;32.67;46.65;;
66888;Laerm;53798;51.680;5.976;2022-12-16T02:06:59;37.82;32.97;48.89;;
66888;Laerm;53798;51.680;5.976;2022-12-16T02:09:26;37.69;32.53;48.38;;
66888;Laerm;53798;51.680;5.976;2022-12-16T02:12:16;36.22;32.13;48.01;;
66888;Laerm;53798;51.680;5.976;2022-12-16T02:20:54;37.99;33.55;51.72;;
66888;Laerm;53798;51.680;5.976;2022-12-16T02:27:08;36.18;32.55;47.03;;
66888;Laerm;53798;51.680;5.976;2022-12-16T02:33:10;36.19;33.23;49.49;;
66888;Laerm;53798;51.680;5.976;2022-12-16T02:38:26;36.28;32.71;46.56;;
66888;Laerm;53798;51.680;5.976;2022-12-16T02:41:06;36.92;32.61;44.84;;
66888;Laerm;53798;51.680;5.976;2022-12-16T02:44:05;35.79;32.23;42.83;;
66888;Laerm;53798;51.680;5.976;2022-12-16T02:46:50;52.41;33.02;72.13;;
66888;Laerm;53798;51.680;5.976;2022-12-16T02:51:49;35.17;31.95;42.93;;
66888;Laerm;53798;51.680;5.976;2022-12-16T02:54:17;36.32;32.57;47.36;;
66888;Laerm;53798;51.680;5.976;2022-12-16T02:59:49;36.23;32.99;41.63;;
66888;Laerm;53798;51.680;5.976;2022-12-16T03:05:37;35.41;32.22;41.02;;
66888;Laerm;53798;51.680;5.976;2022-12-16T03:08:12;36.76;32.45;44.38;;
66888;Laerm;53798;51.680;5.976;2022-12-16T03:10:46;35.64;32.03;43.22;;
66888;Laerm;53798;51.680;5.976;2022-12-16T03:13:18;34.43;31.61;38.29;;
66888;Laerm;53798;51.680;5.976;2022-12-16T03:15:51;52.51;32.36;70.94;;
66888;Laerm;53798;51.680;5.976;2022-12-16T03:18:20;34.78;31.69;40.13;;
66888;Laerm;53798;51.680;5.976;2022-12-16T03:20:54;35.86;32.86;40.64;;
66888;Laerm;53798;51.680;5.976;2022-12-16T03:23:53;36.56;33.26;41.83;;
66888;Laerm;53798;51.680;5.976;2022-12-16T03:26:29;36.21;32.11;50.55;;
66888;Laerm;53798;51.680;5.976;2022-12-16T03:29:13;36.12;32.39;45.88;;
66888;Laerm;53798;51.680;5.976;2022-12-16T03:31:58;36.34;32.78;46.09;;
66888;Laerm;53798;51.680;5.976;2022-12-16T03:34:42;35.76;32.63;45.67;;
66888;Laerm;53798;51.680;5.976;2022-12-16T03:37:12;37.24;32.86;45.48;;
66888;Laerm;53798;51.680;5.976;2022-12-16T03:39:50;61.57;32.67;80.99;;
66888;Laerm;53798;51.680;5.976;2022-12-16T03:42:19;50.94;31.93;73.35;;
66888;Laerm;53798;51.680;5.976;2022-12-16T03:44:48;35.79;32.31;52.29;;
66888;Laerm;53798;51.680;5.976;2022-12-16T03:47:15;34.72;31.42;41.37;;
66888;Laerm;53798;51.680;5.976;2022-12-16T03:49:49;35.20;32.32;39.25;;
66888;Laerm;53798;51.680;5.976;2022-12-16T03:52:16;34.93;31.94;40.22;;
66888;Laerm;53798;51.680;5.976;2022-12-16T03:54:44;35.76;32.37;39.42;;
66888;Laerm;53798;51.680;5.976;2022-12-16T03:57:11;36.51;32.36;46.36;;
66888;Laerm;53798;51.680;5.976;2022-12-16T03:59:42;56.13;32.66;75.25;;
66888;Laerm;53798;51.680;5.976;2022-12-16T04:02:11;37.65;34.06;42.80;;
66888;Laerm;53798;51.680;5.976;2022-12-16T04:04:38;53.13;33.43;71.52;;
66888;Laerm;53798;51.680;5.976;2022-12-16T04:07:05;58.50;34.51;78.91;;
66888;Laerm;53798;51.680;5.976;2022-12-16T04:09:51;61.16;33.13;79.62;;
66888;Laerm;53798;51.680;5.976;2022-12-16T04:12:19;59.01;33.37;77.40;;
66888;Laerm;53798;51.680;5.976;2022-12-16T04:15:06;65.48;33.59;84.32;;
66888;Laerm;53798;51.680;5.976;2022-12-16T04:17:52;41.45;32.97;59.74;;
66888;Laerm;53798;51.680;5.976;2022-12-16T04:20:44;58.26;33.86;73.31;;
66888;Laerm;53798;51.680;5.976;2022-12-16T04:23:34;63.86;33.02;80.76;;
66888;Laerm;53798;51.680;5.976;2022-12-16T04:26:21;55.84;33.47;70.57;;
66888;Laerm;53798;51.680;5.976;2022-12-16T04:28:48;57.14;33.93;75.62;;
66888;Laerm;53798;51.680;5.976;2022-12-16T04:31:15;56.67;32.27;70.76;;
66888;Laerm;53798;51.680;5.976;2022-12-16T04:33:44;59.36;33.64;74.57;;
66888;Laerm;53798;51.680;5.976;2022-12-16T04:36:29;56.74;34.40;74.86;;
66888;Laerm;53798;51.680;5.976;2022-12-16T04:39:14;55.12;34.18;70.30;;
66888;Laerm;53798;51.680;5.976;2022-12-16T04:42:00;59.82;35.15;75.41;;
66888;Laerm;53798;51.680;5.976;2022-12-16T04:44:46;64.89;35.83;79.67;;
66888;Laerm;53798;51.680;5.976;2022-12-16T04:47:32;61.96;35.32;77.38;;
66888;Laerm;53798;51.680;5.976;2022-12-16T04:50:23;65.37;35.69;77.39;;
66888;Laerm;53798;51.680;5.976;2022-12-16T04:53:27;66.33;35.44;80.61;;
66888;Laerm;53798;51.680;5.976;2022-12-16T04:56:13;42.31;35.17;56.57;;
66888;Laerm;53798;51.680;5.976;2022-12-16T04:58:59;65.03;34.34;82.08;;
66888;Laerm;53798;51.680;5.976;2022-12-16T05:01:44;65.96;35.35;83.01;;
66888;Laerm;53798;51.680;5.976;2022-12-16T05:04:32;66.81;34.86;81.68;;
66888;Laerm;53798;51.680;5.976;2022-12-16T05:07:17;68.49;38.36;82.97;;
66888;Laerm;53798;51.680;5.976;2022-12-16T05:10:06;64.39;36.08;78.65;;
66888;Laerm;53798;51.680;5.976;2022-12-16T05:12:53;66.89;36.24;84.71;;
66888;Laerm;53798;51.680;5.976;2022-12-16T05:15:39;65.08;35.96;79.86;;
66888;Laerm;53798;51.680;5.976;2022-12-16T05:18:25;38.38;33.95;47.51;;
66888;Laerm;53798;51.680;5.976;2022-12-16T05:21:14;66.17;35.96;81.55;;
66888;Laerm;53798;51.680;5.976;2022-12-16T05:24:00;65.94;37.61;80.77;;
66888;Laerm;53798;51.680;5.976;2022-12-16T05:26:46;70.48;41.33;87.08;;
66888;Laerm;53798;51.680;5.976;2022-12-16T05:29:32;66.27;38.33;79.81;;
66888;Laerm;53798;51.680;5.976;2022-12-16T05:32:18;66.72;37.69;81.96;;
66888;Laerm;53798;51.680;5.976;2022-12-16T05:35:04;62.91;39.56;80.08;;
66888;Laerm;53798;51.680;5.976;2022-12-16T05:37:50;53.27;37.30;74.65;;
66888;Laerm;53798;51.680;5.976;2022-12-16T05:40:36;63.68;37.10;81.90;;
66888;Laerm;53798;51.680;5.976;2022-12-16T05:43:21;59.59;36.47;77.30;;
66888;Laerm;53798;51.680;5.976;2022-12-16T05:46:07;68.54;42.09;81.35;;
66888;Laerm;53798;51.680;5.976;2022-12-16T05:48:53;68.76;40.87;81.93;;
66888;Laerm;53798;51.680;5.976;2022-12-16T05:51:45;65.58;42.61;77.77;;
66888;Laerm;53798;51.680;5.976;2022-12-16T05:54:30;63.28;39.64;78.28;;
66888;Laerm;53798;51.680;5.976;2022-12-16T05:57:16;65.13;39.34;79.48;;
66888;Laerm;53798;51.680;5.976;2022-12-16T06:00:03;67.52;42.19;79.39;;
66888;Laerm;53798;51.680;5.976;2022-12-16T06:02:50;59.91;39.37;73.89;;
66888;Laerm;53798;51.680;5.976;2022-12-16T06:05:36;67.00;38.63;83.26;;
66888;Laerm;53798;51.680;5.976;2022-12-16T06:08:21;66.96;42.23;79.42;;
66888;Laerm;53798;51.680;5.976;2022-12-16T06:11:07;67.97;39.73;83.98;;
66888;Laerm;53798;51.680;5.976;2022-12-16T06:13:53;68.10;40.77;82.22;;
66888;Laerm;53798;51.680;5.976;2022-12-16T06:16:42;69.73;41.51;84.48;;
66888;Laerm;53798;51.680;5.976;2022-12-16T06:19:28;67.08;40.57;82.61;;
66888;Laerm;53798;51.680;5.976;2022-12-16T06:22:14;68.15;38.21;80.78;;
66888;Laerm;53798;51.680;5.976;2022-12-16T06:25:00;63.01;36.98;80.06;;
66888;Laerm;53798;51.680;5.976;2022-12-16T06:27:52;68.72;38.88;85.15;;
66888;Laerm;53798;51.680;5.976;2022-12-16T06:30:38;65.00;37.17;76.36;;
66888;Laerm;53798;51.680;5.976;2022-12-16T06:33:24;65.43;42.10;77.49;;
66888;Laerm;53798;51.680;5.976;2022-12-16T06:36:10;67.71;40.54;81.24;;
66888;Laerm;53798;51.680;5.976;2022-12-16T06:38:57;68.49;40.73;82.29;;
66888;Laerm;53798;51.680;5.976;2022-12-16T06:41:43;64.70;39.40;80.47;;
66888;Laerm;53798;51.680;5.976;2022-12-16T06:44:29;71.57;39.47;85.74;;
66888;Laerm;53798;51.680;5.976;2022-12-16T06:47:16;65.04;39.96;78.11;;
66888;Laerm;53798;51.680;5.976;2022-12-16T06:50:02;63.94;39.09;78.93;;
66888;Laerm;53798;51.680;5.976;2022-12-16T06:52:48;70.53;43.89;82.27;;
66888;Laerm;53798;51.680;5.976;2022-12-16T06:55:34;69.48;43.42;84.15;;
66888;Laerm;53798;51.680;5.976;2022-12-16T06:58:20;71.11;51.98;81.81;;
66888;Laerm;53798;51.680;5.976;2022-12-16T07:01:06;72.64;49.16;84.83;;
66888;Laerm;53798;51.680;5.976;2022-12-16T07:03:51;68.86;41.05;83.96;;
66888;Laerm;53798;51.680;5.976;2022-12-16T07:06:37;69.19;43.84;81.74;;
66888;Laerm;53798;51.680;5.976;2022-12-16T07:09:23;70.55;44.20;81.01;;
66888;Laerm;53798;51.680;5.976;2022-12-16T07:12:14;69.25;41.75;82.01;;
66888;Laerm;53798;51.680;5.976;2022-12-16T07:15:01;68.68;42.26;82.46;;
66888;Laerm;53798;51.680;5.976;2022-12-16T07:17:47;70.59;44.76;84.02;;
66888;Laerm;53798;51.680;5.976;2022-12-16T07:20:33;71.47;40.82;82.39;;
66888;Laerm;53798;51.680;5.976;2022-12-16T07:23:20;68.49;40.86;82.97;;
66888;Laerm;53798;51.680;5.976;2022-12-16T07:26:06;70.25;44.93;82.83;;
66888;Laerm;53798;51.680;5.976;2022-12-16T07:28:52;69.15;42.26;79.45;;
66888;Laerm;53798;51.680;5.976;2022-12-16T07:31:38;69.04;48.02;80.54;;
66888;Laerm;53798;51.680;5.976;2022-12-16T07:34:23;73.07;44.45;86.47;;
66888;Laerm;53798;51.680;5.976;2022-12-16T07:37:15;70.27;41.27;82.73;;
66888;Laerm;53798;51.680;5.976;2022-12-16T07:40:02;69.66;40.07;82.96;;
66888;Laerm;53798;51.680;5.976;2022-12-16T07:42:48;69.26;43.31;82.29;;
66888;Laerm;53798;51.680;5.976;2022-12-16T07:45:34;67.74;41.69;81.23;;
66888;Laerm;53798;51.680;5.976;2022-12-16T07:48:21;72.64;46.53;83.35;;
66888;Laerm;53798;51.680;5.976;2022-12-16T07:51:06;69.98;43.72;85.53;;
66888;Laerm;53798;51.680;5.976;2022-12-16T07:53:53;72.19;45.49;86.49;;
66888;Laerm;53798;51.680;5.976;2022-12-16T07:56:39;69.55;43.32;83.33;;
66888;Laerm;53798;51.680;5.976;2022-12-16T07:59:24;69.47;41.94;81.50;;
66888;Laerm;53798;51.680;5.976;2022-12-16T08:02:10;71.73;42.08;83.78;;
66888;Laerm;53798;51.680;5.976;2022-12-16T08:04:56;70.78;39.50;82.96;;
66888;Laerm;53798;51.680;5.976;2022-12-16T08:07:42;69.54;39.46;84.01;;
66888;Laerm;53798;51.680;5.976;2022-12-16T08:10:28;72.16;46.18;84.82;;
66888;Laerm;53798;51.680;5.976;2022-12-16T08:13:14;70.80;46.59;81.79;;
66888;Laerm;53798;51.680;5.976;2022-12-16T08:16:00;70.39;42.63;84.06;;
66888;Laerm;53798;51.680;5.976;2022-12-16T08:18:46;68.45;42.30;81.12;;
66888;Laerm;53798;51.680;5.976;2022-12-16T08:21:37;67.57;41.34;80.16;;
66888;Laerm;53798;51.680;5.976;2022-12-16T08:24:23;71.47;38.33;84.69;;
66888;Laerm;53798;51.680;5.976;2022-12-16T08:27:12;68.19;43.33;80.83;;
66888;Laerm;53798;51.680;5.976;2022-12-16T08:29:58;71.58;43.22;88.46;;
66888;Laerm;53798;51.680;5.976;2022-12-16T08:32:45;66.92;39.89;81.23;;
66888;Laerm;53798;51.680;5.976;2022-12-16T08:35:44;71.08;43.66;82.89;;
66888;Laerm;53798;51.680;5.976;2022-12-16T08:38:31;71.15;41.00;84.22;;
66888;Laerm;53798;51.680;5.976;2022-12-16T08:41:17;70.26;43.17;83.85;;
66888;Laerm;53798;51.680;5.976;2022-12-16T08:44:03;67.77;38.95;81.53;;
66888;Laerm;53798;51.680;5.976;2022-12-16T08:46:49;70.65;43.51;83.68;;
66888;Laerm;53798;51.680;5.976;2022-12-16T08:49:35;67.25;42.97;79.99;;
66888;Laerm;53798;51.680;5.976;2022-12-16T08:52:27;71.67;44.32;83.09;;
66888;Laerm;53798;51.680;5.976;2022-12-16T08:55:13;71.82;46.28;86.52;;
66888;Laerm;53798;51.680;5.976;2022-12-16T08:57:59;70.14;45.26;83.55;;
66888;Laerm;53798;51.680;5.976;2022-12-16T09:00:45;71.85;47.89;84.24;;
66888;Laerm;53798;51.680;5.976;2022-12-16T09:03:35;70.12;38.66;81.67;;
66888;Laerm;53798;51.680;5.976;2022-12-16T09:06:21;70.33;41.64;86.55;;
66888;Laerm;53798;51.680;5.976;2022-12-16T09:09:09;69.57;44.99;80.50;;
66888;Laerm;53798;51.680;5.976;2022-12-16T09:11:54;68.88;39.07;85.07;;
66888;Laerm;53798;51.680;5.976;2022-12-16T09:14:40;71.24;40.56;84.45;;
66888;Laerm;53798;51.680;5.976;2022-12-16T09:17:27;68.89;43.47;81.41;;
66888;Laerm;53798;51.680;5.976;2022-12-16T09:20:12;70.60;43.44;82.07;;
66888;Laerm;53798;51.680;5.976;2022-12-16T09:23:04;67.90;38.51;84.52;;
66888;Laerm;53798;51.680;5.976;2022-12-16T09:25:49;69.14;39.84;81.41;;
66888;Laerm;53798;51.680;5.976;2022-12-16T09:28:35;67.74;38.98;79.58;;
66888;Laerm;53798;51.680;5.976;2022-12-16T09:31:21;73.21;39.92;85.48;;
66888;Laerm;53798;51.680;5.976;2022-12-16T09:34:07;70.42;45.70;83.54;;
66888;Laerm;53798;51.680;5.976;2022-12-16T09:36:53;71.22;43.78;82.98;;
66888;Laerm;53798;51.680;5.976;2022-12-16T09:39:39;69.91;40.10;83.20;;
66888;Laerm;53798;51.680;5.976;2022-12-16T09:49:49;69.79;40.62;81.93;;
66888;Laerm;53798;51.680;5.976;2022-12-16T09:52:59;70.79;41.59;83.66;;
66888;Laerm;53798;51.680;5.976;2022-12-16T09:55:47;71.80;45.95;84.35;;
66888;Laerm;53798;51.680;5.976;2022-12-16T09:58:41;70.08;41.02;82.13;;
66888;Laerm;53798;51.680;5.976;2022-12-16T10:01:35;70.21;41.81;83.80;;
66888;Laerm;53798;51.680;5.976;2022-12-16T10:04:23;70.10;44.28;82.08;;
66888;Laerm;53798;51.680;5.976;2022-12-16T10:07:19;70.90;39.31;83.22;;
66888;Laerm;53798;51.680;5.976;2022-12-16T10:10:16;68.56;40.29;80.81;;
66888;Laerm;53798;51.680;5.976;2022-12-16T10:16:35;71.83;45.01;84.36;;
66888;Laerm;53798;51.680;5.976;2022-12-16T10:19:51;68.98;42.47;83.66;;
66888;Laerm;53798;51.680;5.976;2022-12-16T10:23:04;72.18;45.92;86.46;;
66888;Laerm;53798;51.680;5.976;2022-12-16T10:26:42;70.19;41.95;83.36;;
66888;Laerm;53798;51.680;5.976;2022-12-16T10:29:38;73.54;45.87;84.47;;
66888;Laerm;53798;51.680;5.976;2022-12-16T10:32:43;69.83;39.84;80.75;;
66888;Laerm;53798;51.680;5.976;2022-12-16T10:35:36;68.83;41.68;82.92;;
66888;Laerm;53798;51.680;5.976;2022-12-16T10:38:50;72.35;49.49;84.32;;
66888;Laerm;53798;51.680;5.976;2022-12-16T10:41:42;72.33;45.20;82.76;;
66888;Laerm;53798;51.680;5.976;2022-12-16T10:44:57;73.25;44.69;85.17;;
66888;Laerm;53798;51.680;5.976;2022-12-16T10:47:45;68.61;46.76;79.45;;
66888;Laerm;53798;51.680;5.976;2022-12-16T10:50:31;71.18;39.87;85.66;;
66888;Laerm;53798;51.680;5.976;2022-12-16T10:53:26;69.04;46.39;82.59;;
66888;Laerm;53798;51.680;5.976;2022-12-16T10:56:55;71.17;46.34;83.86;;
66888;Laerm;53798;51.680;5.976;2022-12-16T10:59:42;70.90;42.58;82.80;;
66888;Laerm;53798;51.680;5.976;2022-12-16T11:02:28;68.47;41.99;82.64;;
66888;Laerm;53798;51.680;5.976;2022-12-16T11:05:30;67.87;45.56;80.20;;
66888;Laerm;53798;51.680;5.976;2022-12-16T11:08:47;70.43;38.81;82.36;;
66888;Laerm;53798;51.680;5.976;2022-12-16T11:11:33;72.09;48.08;83.57;;
66888;Laerm;53798;51.680;5.976;2022-12-16T11:14:30;73.71;44.69;85.68;;
66888;Laerm;53798;51.680;5.976;2022-12-16T11:17:36;70.82;40.65;82.62;;
66888;Laerm;53798;51.680;5.976;2022-12-16T11:20:24;71.36;39.88;85.65;;
66888;Laerm;53798;51.680;5.976;2022-12-16T11:23:18;71.17;40.02;83.10;;
66888;Laerm;53798;51.680;5.976;2022-12-16T11:26:24;71.86;42.68;86.80;;
66888;Laerm;53798;51.680;5.976;2022-12-16T11:29:14;71.32;39.98;85.44;;
66888;Laerm;53798;51.680;5.976;2022-12-16T11:32:24;69.35;37.44;84.56;;
66888;Laerm;53798;51.680;5.976;2022-12-16T11:35:23;70.74;44.67;83.48;;
66888;Laerm;53798;51.680;5.976;2022-12-16T11:38:44;71.44;43.64;83.40;;
66888;Laerm;53798;51.680;5.976;2022-12-16T11:41:42;68.58;39.20;82.14;;
66888;Laerm;53798;51.680;5.976;2022-12-16T11:44:45;69.31;42.70;80.05;;
66888;Laerm;53798;51.680;5.976;2022-12-16T11:47:52;71.84;50.10;84.46;;
66888;Laerm;53798;51.680;5.976;2022-12-16T11:50:52;70.29;42.91;84.78;;
66888;Laerm;53798;51.680;5.976;2022-12-16T11:53:43;73.89;51.04;86.98;;
66888;Laerm;53798;51.680;5.976;2022-12-16T11:56:37;70.49;45.84;84.32;;
66888;Laerm;53798;51.680;5.976;2022-12-16T12:02:48;72.33;41.57;87.64;;
66888;Laerm;53798;51.680;5.976;2022-12-16T12:06:02;68.95;44.02;82.03;;
66888;Laerm;53798;51.680;5.976;2022-12-16T12:09:17;69.85;44.39;83.24;;
66888;Laerm;53798;51.680;5.976;2022-12-16T12:15:41;67.89;39.34;79.76;;
66888;Laerm;53798;51.680;5.976;2022-12-16T12:18:57;69.59;40.41;84.54;;
66888;Laerm;53798;51.680;5.976;2022-12-16T12:28:15;70.44;44.92;83.49;;
66888;Laerm;53798;51.680;5.976;2022-12-16T12:34:49;69.79;43.23;82.46;;
66888;Laerm;53798;51.680;5.976;2022-12-16T12:37:51;69.94;41.64;83.60;;
66888;Laerm;53798;51.680;5.976;2022-12-16T12:41:13;71.25;49.17;81.61;;
66888;Laerm;53798;51.680;5.976;2022-12-16T12:47:57;72.16;44.41;84.26;;
66888;Laerm;53798;51.680;5.976;2022-12-16T12:51:09;71.90;46.82;84.37;;
66888;Laerm;53798;51.680;5.976;2022-12-16T12:57:12;66.26;43.44;78.80;;
66888;Laerm;53798;51.680;5.976;2022-12-16T13:00:19;70.20;44.06;84.75;;
66888;Laerm;53798;51.680;5.976;2022-12-16T13:06:21;73.07;45.52;82.74;;
66888;Laerm;53798;51.680;5.976;2022-12-16T13:09:34;72.86;50.39;86.32;;
66888;Laerm;53798;51.680;5.976;2022-12-16T13:15:35;72.79;50.82;84.58;;
66888;Laerm;53798;51.680;5.976;2022-12-16T13:18:24;70.98;41.76;83.09;;
66888;Laerm;53798;51.680;5.976;2022-12-16T13:27:14;72.70;49.57;83.17;;
66888;Laerm;53798;51.680;5.976;2022-12-16T13:30:23;72.49;51.65;88.02;;
66888;Laerm;53798;51.680;5.976;2022-12-16T13:33:23;68.90;46.77;83.25;;
66888;Laerm;53798;51.680;5.976;2022-12-16T13:36:13;70.73;42.82;83.16;;
66888;Laerm;53798;51.680;5.976;2022-12-16T13:39:21;72.87;48.46;84.77;;
66888;Laerm;53798;51.680;5.976;2022-12-16T13:45:42;70.52;39.11;84.56;;
66888;Laerm;53798;51.680;5.976;2022-12-16T13:48:39;73.26;48.49;85.72;;
66888;Laerm;53798;51.680;5.976;2022-12-16T13:54:40;71.68;49.88;82.48;;
66888;Laerm;53798;51.680;5.976;2022-12-16T13:57:35;68.67;42.33;83.48;;
66888;Laerm;53798;51.680;5.976;2022-12-16T14:00:26;71.69;47.06;82.66;;
66888;Laerm;53798;51.680;5.976;2022-12-16T14:03:22;71.86;44.64;83.78;;
66888;Laerm;53798;51.680;5.976;2022-12-16T14:06:20;72.52;47.33;84.46;;
66888;Laerm;53798;51.680;5.976;2022-12-16T14:09:26;71.28;46.68;82.79;;
66888;Laerm;53798;51.680;5.976;2022-12-16T14:12:37;70.85;46.33;83.65;;
66888;Laerm;53798;51.680;5.976;2022-12-16T14:15:36;69.86;39.03;83.11;;
66888;Laerm;53798;51.680;5.976;2022-12-16T14:18:41;72.97;44.08;83.87;;
66888;Laerm;53798;51.680;5.976;2022-12-16T14:21:39;71.98;46.48;83.74;;
66888;Laerm;53798;51.680;5.976;2022-12-16T14:24:26;71.16;50.18;83.02;;
66888;Laerm;53798;51.680;5.976;2022-12-16T14:27:20;70.60;41.12;84.16;;
66888;Laerm;53798;51.680;5.976;2022-12-16T14:30:24;72.12;51.42;83.56;;
66888;Laerm;53798;51.680;5.976;2022-12-16T14:33:23;71.04;42.70;82.66;;
66888;Laerm;53798;51.680;5.976;2022-12-16T14:36:27;73.27;49.96;86.60;;
66888;Laerm;53798;51.680;5.976;2022-12-16T14:39:22;72.10;46.72;83.78;;
66888;Laerm;53798;51.680;5.976;2022-12-16T14:42:27;70.30;44.98;84.02;;
66888;Laerm;53798;51.680;5.976;2022-12-16T14:45:27;69.14;41.39;82.63;;
66888;Laerm;53798;51.680;5.976;2022-12-16T14:51:27;68.84;41.76;82.87;;
66888;Laerm;53798;51.680;5.976;2022-12-16T14:54:39;71.53;45.22;84.23;;
66888;Laerm;53798;51.680;5.976;2022-12-16T14:57:30;71.71;46.40;84.63;;
66888;Laerm;53798;51.680;5.976;2022-12-16T15:00:23;71.47;51.42;84.32;;
66888;Laerm;53798;51.680;5.976;2022-12-16T15:05:56;73.34;49.65;83.33;;
66888;Laerm;53798;51.680;5.976;2022-12-16T15:08:58;70.17;45.72;80.84;;
66888;Laerm;53798;51.680;5.976;2022-12-16T15:11:49;72.95;54.55;85.35;;
66888;Laerm;53798;51.680;5.976;2022-12-16T15:14:39;72.72;54.11;84.99;;
66888;Laerm;53798;51.680;5.976;2022-12-16T15:20:32;71.04;45.00;83.84;;
66888;Laerm;53798;51.680;5.976;2022-12-16T15:23:24;73.03;46.67;84.53;;
66888;Laerm;53798;51.680;5.976;2022-12-16T15:26:19;72.33;49.47;87.16;;
66888;Laerm;53798;51.680;5.976;2022-12-16T15:29:40;70.94;40.87;83.41;;
66888;Laerm;53798;51.680;5.976;2022-12-16T15:41:03;69.79;43.41;84.49;;
66888;Laerm;53798;51.680;5.976;2022-12-16T15:43:51;67.49;40.18;79.58;;
66888;Laerm;53798;51.680;5.976;2022-12-16T15:46:37;69.55;44.93;80.67;;
66888;Laerm;53798;51.680;5.976;2022-12-16T15:49:37;71.66;41.19;86.45;;
66888;Laerm;53798;51.680;5.976;2022-12-16T15:52:43;71.54;42.54;85.81;;
66888;Laerm;53798;51.680;5.976;2022-12-16T15:55:38;72.82;50.68;85.63;;
66888;Laerm;53798;51.680;5.976;2022-12-16T15:58:34;69.76;41.29;81.96;;
66888;Laerm;53798;51.680;5.976;2022-12-16T16:01:25;73.49;52.55;85.70;;
66888;Laerm;53798;51.680;5.976;2022-12-16T16:04:24;71.55;50.64;83.04;;
66888;Laerm;53798;51.680;5.976;2022-12-16T16:07:19;72.84;44.24;83.34;;
66888;Laerm;53798;51.680;5.976;2022-12-16T16:10:23;71.54;41.01;81.51;;
66888;Laerm;53798;51.680;5.976;2022-12-16T16:13:09;73.53;47.54;83.64;;
66888;Laerm;53798;51.680;5.976;2022-12-16T16:15:55;71.28;47.07;83.56;;
66888;Laerm;53798;51.680;5.976;2022-12-16T16:18:42;72.90;50.83;85.07;;
66888;Laerm;53798;51.680;5.976;2022-12-16T16:21:28;70.77;48.24;84.14;;
66888;Laerm;53798;51.680;5.976;2022-12-16T16:24:14;70.39;45.31;84.14;;
66888;Laerm;53798;51.680;5.976;2022-12-16T16:27:01;69.58;41.04;80.98;;
66888;Laerm;53798;51.680;5.976;2022-12-16T16:29:48;71.23;40.59;83.47;;
66888;Laerm;53798;51.680;5.976;2022-12-16T16:32:34;70.83;41.28;82.40;;
66888;Laerm;53798;51.680;5.976;2022-12-16T16:35:20;68.99;46.23;81.59;;
66888;Laerm;53798;51.680;5.976;2022-12-16T16:38:10;69.40;44.70;80.62;;
66888;Laerm;53798;51.680;5.976;2022-12-16T16:40:56;69.34;42.14;83.18;;
66888;Laerm;53798;51.680;5.976;2022-12-16T16:43:42;72.07;48.66;83.39;;
66888;Laerm;53798;51.680;5.976;2022-12-16T16:46:40;69.49;43.16;85.35;;
66888;Laerm;53798;51.680;5.976;2022-12-16T16:49:33;68.87;36.92;83.46;;
66888;Laerm;53798;51.680;5.976;2022-12-16T16:52:23;67.96;37.32;81.00;;
66888;Laerm;53798;51.680;5.976;2022-12-16T16:55:23;68.20;35.67;83.25;;
66888;Laerm;53798;51.680;5.976;2022-12-16T16:58:32;67.63;36.71;83.97;;
66888;Laerm;53798;51.680;5.976;2022-12-16T17:01:18;70.21;37.73;84.71;;
66888;Laerm;53798;51.680;5.976;2022-12-16T17:04:04;68.64;37.92;82.28;;
66888;Laerm;53798;51.680;5.976;2022-12-16T17:06:52;70.50;42.67;82.17;;